Time;durP1;ratioP1;P1;durP2;ratioP2;P2;SDS_P1;SDS_P2;PMS_P1;PMS_P2;Temp;Humidity;BMP_temperature;BMP_pressure;BME280_temperature;BME280_humidity;BME280_pressure;Samples;Min_cycle;Max_cycle;Signal;HPM_P1;HPM_P2
2023/10/14 00:01:15;;;;;;;0.50;0.20;;;;;;;22.46;67.06;99147.75;4975649;28;20493;-50
2023/10/14 00:03:49;;;;;;;0.50;0.20;;;;;;;22.52;67.02;99138.19;4976226;28;20462;-50
2023/10/14 00:06:18;;;;;;;0.50;0.30;;;;;;;22.38;67.67;99137.66;4976338;28;20455;-49
2023/10/14 00:08:48;;;;;;;0.50;0.20;;;;;;;22.34;67.54;99138.09;4975942;28;20506;-49
2023/10/14 00:11:16;;;;;;;0.50;0.20;;;;;;;22.39;67.30;99147.50;4975798;28;20527;-50
2023/10/14 00:13:48;;;;;;;0.47;0.20;;;;;;;22.40;67.25;99151.06;4975714;28;20497;-49
2023/10/14 00:19:04;;;;;;;0.50;0.20;;;;;;;22.46;66.64;99145.88;4975954;28;20454;-50
2023/10/14 00:21:35;;;;;;;0.40;0.20;;;;;;;22.39;66.59;99133.94;4976005;28;20444;-49
2023/10/14 00:24:06;;;;;;;0.47;0.20;;;;;;;22.37;66.79;99144.09;4974288;28;20791;-49
2023/10/14 00:26:34;;;;;;;0.50;0.20;;;;;;;22.42;66.77;99138.22;4975782;28;20433;-49
2023/10/14 00:32:03;;;;;;;0.50;0.20;;;;;;;22.34;67.46;99135.38;4958831;28;20976;-49
2023/10/14 00:34:29;;;;;;;0.40;0.20;;;;;;;22.43;66.84;99126.38;4975247;28;20486;-49
2023/10/14 00:36:56;;;;;;;0.50;0.30;;;;;;;22.30;67.57;99134.81;4975627;28;20486;-50
2023/10/14 00:39:25;;;;;;;0.50;0.20;;;;;;;22.42;66.76;99128.22;4975223;28;20541;-50
2023/10/14 00:41:52;;;;;;;0.40;0.20;;;;;;;22.50;66.36;99129.38;4975475;28;20474;-50
2023/10/14 00:44:20;;;;;;;0.50;0.20;;;;;;;22.49;66.55;99136.63;4975268;28;20450;-49
2023/10/14 00:46:49;;;;;;;0.50;0.50;;;;;;;22.55;66.41;99138.75;4975078;28;20454;-50
2023/10/14 00:49:23;;;;;;;0.50;0.20;;;;;;;22.56;65.95;99140.44;4975116;28;20429;-49
2023/10/14 00:51:57;;;;;;;0.40;0.20;;;;;;;22.57;66.08;99130.47;4975345;28;20498;-49
2023/10/14 00:59:47;;;;;;;0.50;0.20;;;;;;;22.63;65.47;99119.06;4974967;28;20476;-49
2023/10/14 01:02:14;;;;;;;0.50;0.20;;;;;;;22.58;65.90;99116.75;4974894;28;21017;-50
2023/10/14 01:04:48;;;;;;;0.40;0.20;;;;;;;22.53;65.57;99129.91;4975149;28;20450;-50
2023/10/14 01:07:15;;;;;;;0.50;0.20;;;;;;;22.54;65.48;99118.06;4975015;28;20421;-49
2023/10/14 01:12:16;;;;;;;0.50;0.20;;;;;;;22.46;66.39;99115.25;4974649;28;20448;-49
2023/10/14 01:14:44;;;;;;;0.43;0.20;;;;;;;22.45;66.52;99117.09;4974649;28;20468;-49
2023/10/14 01:19:53;;;;;;;0.50;0.20;;;;;;;22.44;66.57;99106.41;4974513;28;20939;-49
2023/10/14 01:22:20;;;;;;;0.40;0.30;;;;;;;22.56;66.31;99090.84;4974394;28;20832;-49
2023/10/14 01:24:47;;;;;;;0.50;0.20;;;;;;;22.52;66.22;99103.84;4974617;28;20457;-49
2023/10/14 01:27:13;;;;;;;0.40;0.20;;;;;;;22.47;66.41;99090.72;4974698;28;20452;-49
2023/10/14 01:29:40;;;;;;;0.40;0.20;;;;;;;22.43;67.30;99096.59;4974472;28;20433;-49
2023/10/14 01:32:32;;;;;;;0.50;0.20;;;;;;;22.48;66.91;99088.88;4974301;28;20912;-49
2023/10/14 01:35:00;;;;;;;0.50;0.30;;;;;;;22.32;68.03;99084.06;4963592;28;20787;-49
2023/10/14 01:37:34;;;;;;;0.50;0.30;;;;;;;22.35;68.58;99093.78;4974915;28;20425;-49
2023/10/14 01:40:24;;;;;;;0.40;0.30;;;;;;;22.29;69.32;99097.91;4974378;28;20541;-49
2023/10/14 01:42:58;;;;;;;0.40;0.20;;;;;;;22.14;69.58;99108.38;4974181;28;20885;-49
2023/10/14 01:45:31;;;;;;;0.50;0.20;;;;;;;22.18;69.97;99107.06;4974008;28;20452;-48
2023/10/14 01:48:20;;;;;;;0.40;0.20;;;;;;;22.17;70.03;99105.34;4974278;28;20480;-49
2023/10/14 01:50:57;;;;;;;0.50;0.20;;;;;;;22.11;70.22;99110.53;4973932;28;20538;-49
2023/10/14 01:53:32;;;;;;;0.40;0.20;;;;;;;22.17;70.14;99112.63;4973903;28;20512;-49
2023/10/14 01:56:01;;;;;;;0.47;0.20;;;;;;;22.09;69.90;99096.28;4974236;28;20460;-49
2023/10/14 01:58:29;;;;;;;0.47;0.20;;;;;;;22.08;69.91;99105.41;4973986;28;20462;-49
2023/10/14 02:00:59;;;;;;;0.50;0.20;;;;;;;22.07;70.00;99096.44;4973689;28;20474;-49
2023/10/14 02:03:33;;;;;;;0.50;0.20;;;;;;;22.06;69.13;99102.81;4973664;28;20460;-49
2023/10/14 02:06:04;;;;;;;0.50;0.20;;;;;;;22.07;69.05;99101.84;4973078;28;20772;-49
2023/10/14 02:08:30;;;;;;;0.40;0.20;;;;;;;22.09;68.57;99110.66;4972937;28;20428;-50
2023/10/14 02:10:58;;;;;;;0.50;0.20;;;;;;;22.17;67.97;99113.47;4972974;28;20480;-49
2023/10/14 02:13:24;;;;;;;0.40;0.30;;;;;;;22.09;67.36;99120.63;4972992;28;20478;-49
2023/10/14 02:15:53;;;;;;;0.50;0.20;;;;;;;22.19;66.20;99110.63;4973255;28;20437;-49
2023/10/14 02:18:22;;;;;;;0.40;0.20;;;;;;;22.24;65.92;99100.22;4972971;28;20460;-49
2023/10/14 02:21:05;;;;;;;0.47;0.20;;;;;;;22.30;65.72;99101.47;4972714;28;20471;-49
2023/10/14 02:23:43;;;;;;;0.50;0.20;;;;;;;22.23;66.43;99117.47;4961765;28;20534;-49
2023/10/14 02:26:17;;;;;;;0.40;0.20;;;;;;;22.20;66.60;99112.31;4973006;28;20486;-49
2023/10/14 02:28:47;;;;;;;0.50;0.20;;;;;;;22.24;66.25;99107.50;4972872;28;20429;-49
2023/10/14 02:31:18;;;;;;;0.40;0.20;;;;;;;22.24;66.45;99104.78;4972568;28;20498;-48
2023/10/14 02:33:45;;;;;;;0.40;0.20;;;;;;;22.24;66.68;99107.50;4972702;28;20490;-50
2023/10/14 02:36:15;;;;;;;0.47;0.30;;;;;;;22.13;67.75;99111.22;4972739;28;20454;-49
2023/10/14 02:38:46;;;;;;;0.50;0.20;;;;;;;22.17;67.36;99115.34;4972662;28;20439;-49
2023/10/14 02:41:16;;;;;;;0.50;0.20;;;;;;;22.06;67.92;99118.19;4972720;28;20536;-49
2023/10/14 02:43:48;;;;;;;0.40;0.20;;;;;;;21.95;68.35;99123.78;4972450;28;20485;-49
2023/10/14 02:46:20;;;;;;;0.50;0.20;;;;;;;21.87;68.64;99128.03;4973897;28;20533;-49
2023/10/14 02:48:53;;;;;;;0.47;0.20;;;;;;;21.94;68.51;99130.19;4976133;28;20525;-49
2023/10/14 02:51:35;;;;;;;0.40;0.20;;;;;;;21.95;68.63;99151.69;4976292;28;20910;-49
2023/10/14 02:54:15;;;;;;;0.40;0.20;;;;;;;22.05;67.81;99144.41;4975832;28;20464;-49
2023/10/14 02:59:19;;;;;;;0.50;0.20;;;;;;;21.92;68.23;99167.34;4975870;28;20450;-49
2023/10/14 03:04:44;;;;;;;0.50;0.20;;;;;;;21.92;67.58;99170.03;4977008;28;20218;-50
2023/10/14 03:07:10;;;;;;;0.47;0.20;;;;;;;21.84;67.48;99171.63;4977240;28;20428;-50
2023/10/14 03:09:36;;;;;;;0.40;0.20;;;;;;;21.70;68.12;99187.44;4976856;28;20460;-50
2023/10/14 03:12:05;;;;;;;2.90;2.60;;;;;;;21.65;68.24;99178.88;4976973;28;20474;-49
2023/10/14 03:14:31;;;;;;;0.50;0.20;;;;;;;21.67;68.17;99168.78;4976831;28;20465;-50
2023/10/14 03:16:58;;;;;;;0.67;0.67;;;;;;;21.69;68.45;99174.91;4976820;28;20453;-49
2023/10/14 03:19:25;;;;;;;0.50;0.20;;;;;;;21.59;68.71;99183.00;4976948;28;20508;-49
2023/10/14 03:22:01;;;;;;;0.50;0.20;;;;;;;21.58;68.49;99175.88;4976698;28;20451;-50
2023/10/14 03:24:31;;;;;;;0.43;0.20;;;;;;;21.58;68.63;99175.88;4976751;28;20449;-49
2023/10/14 03:27:04;;;;;;;0.40;0.20;;;;;;;21.46;69.16;99168.91;4976771;28;20465;-49
2023/10/14 03:29:31;;;;;;;0.40;0.20;;;;;;;21.51;69.53;99178.28;4976481;28;20454;-49
2023/10/14 03:31:57;;;;;;;0.50;0.20;;;;;;;21.39;69.70;99171.31;4976797;28;20559;-49
2023/10/14 03:34:30;;;;;;;0.50;0.20;;;;;;;21.48;69.26;99178.56;4976562;28;20493;-50
2023/10/14 03:37:00;;;;;;;0.50;0.20;;;;;;;21.48;69.45;99175.00;4976434;28;20427;-49
2023/10/14 03:39:46;;;;;;;0.40;0.20;;;;;;;21.46;69.64;99179.72;4976413;28;20477;-49
2023/10/14 03:42:15;;;;;;;0.50;0.20;;;;;;;21.41;70.17;99171.19;4976514;28;20494;-50
2023/10/14 03:44:42;;;;;;;0.40;0.20;;;;;;;21.39;70.09;99186.69;4976541;28;20460;-49
2023/10/14 03:47:15;;;;;;;0.50;0.20;;;;;;;21.49;69.53;99174.00;4976363;28;20446;-49
2023/10/14 03:49:43;;;;;;;0.40;0.20;;;;;;;21.43;69.56;99170.03;4976419;28;20446;-49
2023/10/14 03:52:12;;;;;;;0.40;0.20;;;;;;;21.46;69.66;99180.56;4976095;28;20982;-49
2023/10/14 03:54:42;;;;;;;0.40;0.20;;;;;;;21.36;70.32;99181.53;4976290;28;20552;-49
2023/10/14 03:57:17;;;;;;;0.40;0.20;;;;;;;21.36;70.61;99187.78;4976090;28;20425;-49
2023/10/14 03:59:47;;;;;;;0.50;0.20;;;;;;;21.30;70.81;99185.66;4975961;28;20442;-50
2023/10/14 04:02:24;;;;;;;0.40;0.20;;;;;;;21.31;71.35;99183.81;4976023;28;20569;-49
2023/10/14 04:04:58;;;;;;;0.50;0.20;;;;;;;21.32;71.42;99178.25;4975859;28;20454;-49
2023/10/14 04:07:28;;;;;;;0.40;0.20;;;;;;;21.23;72.05;99185.31;4976236;28;20425;-50
2023/10/14 04:09:58;;;;;;;0.40;0.20;;;;;;;21.31;71.59;99179.25;4976148;28;20841;-50
2023/10/14 04:12:39;;;;;;;0.40;0.20;;;;;;;21.21;72.02;99184.59;4975904;28;20471;-49
2023/10/14 04:15:15;;;;;;;0.40;0.20;;;;;;;21.18;72.56;99178.63;4975641;28;20490;-49
2023/10/14 04:17:52;;;;;;;0.40;0.20;;;;;;;21.17;72.87;99182.31;4975885;28;20424;-49
2023/10/14 04:20:22;;;;;;;0.40;0.20;;;;;;;21.18;72.93;99189.44;4975753;28;20450;-50
2023/10/14 04:22:53;;;;;;;0.50;0.30;;;;;;;21.15;73.13;99181.63;4975483;28;20898;-49
2023/10/14 04:25:21;;;;;;;0.40;0.20;;;;;;;21.07;73.95;99184.13;4975683;28;20442;-49
2023/10/14 04:30:25;;;;;;;0.43;0.20;;;;;;;20.98;74.73;99185.84;4975520;28;20493;-49
2023/10/14 04:35:25;;;;;;;0.50;0.20;;;;;;;20.88;75.52;99204.69;4975477;28;20494;-48
2023/10/14 04:37:53;;;;;;;0.50;0.30;;;;;;;20.98;75.27;99202.03;4962939;28;20461;-49
2023/10/14 04:46:12;;;;;;;0.40;0.20;;;;;;;20.65;77.38;99222.06;4975583;28;20449;-48
2023/10/14 04:48:59;;;;;;;0.40;0.20;;;;;;;20.80;77.50;99222.56;4975021;28;20461;-49
2023/10/14 04:51:36;;;;;;;0.40;0.20;;;;;;;20.65;79.50;99235.56;4974969;28;20545;-50
2023/10/14 04:54:09;;;;;;;0.40;0.20;;;;;;;20.41;82.61;99235.81;4962579;28;20516;-49
2023/10/14 04:56:36;;;;;;;0.40;0.20;;;;;;;20.29;83.91;99245.00;4974930;28;20468;-49
2023/10/14 04:59:05;;;;;;;0.50;0.20;;;;;;;20.18;86.21;99243.19;4974556;28;20474;-50
2023/10/14 05:01:33;;;;;;;0.50;0.20;;;;;;;20.03;86.79;99244.50;4974939;28;20490;-49
2023/10/14 05:03:59;;;;;;;0.40;0.20;;;;;;;19.96;87.35;99252.25;4975163;28;20501;-49
2023/10/14 05:06:29;;;;;;;0.50;0.20;;;;;;;19.92;87.79;99255.34;4974936;28;20451;-48
2023/10/14 05:08:56;;;;;;;0.40;0.20;;;;;;;19.86;88.42;99255.81;4974193;28;20512;-48
2023/10/14 05:11:25;;;;;;;0.40;0.20;;;;;;;19.68;89.62;99261.78;4974690;28;20474;-48
2023/10/14 05:14:09;;;;;;;0.40;0.20;;;;;;;19.71;89.42;99269.59;4975163;28;20461;-48
2023/10/14 05:16:53;;;;;;;0.40;0.20;;;;;;;19.63;90.01;99263.16;4974833;28;20452;-49
2023/10/14 05:19:24;;;;;;;0.40;0.20;;;;;;;19.54;90.67;99262.03;4975003;28;20454;-49
2023/10/14 05:22:02;;;;;;;0.40;0.20;;;;;;;19.52;89.88;99262.16;4974387;28;20493;-49
2023/10/14 05:24:29;;;;;;;0.40;0.20;;;;;;;19.60;89.72;99266.97;4974798;28;20453;-50
2023/10/14 05:26:59;;;;;;;0.40;0.20;;;;;;;19.68;88.87;99271.69;4974491;28;20455;-49
2023/10/14 05:29:26;;;;;;;0.40;0.20;;;;;;;19.70;88.53;99275.97;4974320;28;21030;-49
2023/10/14 05:31:53;;;;;;;0.50;0.20;;;;;;;19.72;88.54;99290.19;4974439;28;20485;-49
2023/10/14 05:34:26;;;;;;;0.40;0.20;;;;;;;19.65;88.57;99290.84;4974292;28;20450;-49
2023/10/14 05:36:55;;;;;;;0.40;0.20;;;;;;;19.76;88.81;99297.06;4974404;28;20928;-49
2023/10/14 05:39:23;;;;;;;0.40;0.20;;;;;;;19.69;89.05;99309.31;4974240;28;20939;-49
2023/10/14 05:41:58;;;;;;;0.40;0.20;;;;;;;19.76;88.77;99305.16;4974194;28;20509;-48
2023/10/14 05:44:27;;;;;;;0.40;0.20;;;;;;;19.50;89.69;99322.56;4974321;28;20888;-49
2023/10/14 05:46:55;;;;;;;0.40;0.20;;;;;;;19.52;90.43;99328.69;4973992;28;20450;-51
2023/10/14 05:49:25;;;;;;;0.40;0.20;;;;;;;19.50;91.00;99346.84;4974413;28;20458;-48
2023/10/14 05:51:53;;;;;;;0.40;0.20;;;;;;;19.49;91.69;99359.47;4973795;28;20993;-48
2023/10/14 05:54:23;;;;;;;0.40;0.20;;;;;;;19.39;92.41;99371.94;4974071;28;20432;-49
2023/10/14 05:56:52;;;;;;;0.40;0.20;;;;;;;19.19;94.72;99392.41;4973990;28;20513;-48
2023/10/14 05:59:18;;;;;;;0.40;0.20;;;;;;;19.10;95.87;99394.94;4973671;28;20499;-48
2023/10/14 06:01:46;;;;;;;0.40;0.20;;;;;;;19.05;96.96;99405.19;4973317;28;20872;-48
2023/10/14 06:04:14;;;;;;;0.40;0.20;;;;;;;18.93;97.88;99421.38;4973794;28;20458;-48
2023/10/14 06:06:43;;;;;;;0.40;0.20;;;;;;;18.45;98.86;99435.81;4973873;28;20490;-48
2023/10/14 06:09:10;;;;;;;0.40;0.20;;;;;;;17.82;99.63;99455.69;4973868;28;20450;-48
2023/10/14 06:11:37;;;;;;;0.40;0.20;;;;;;;17.71;100.00;99472.59;4973642;28;20913;-48
2023/10/14 06:14:03;;;;;;;0.50;0.20;;;;;;;17.82;100.00;99486.16;4973658;28;20496;-48
2023/10/14 06:16:31;;;;;;;0.40;0.20;;;;;;;17.48;100.00;99485.78;4973649;28;20498;-49
2023/10/14 06:18:59;;;;;;;0.40;0.30;;;;;;;17.68;99.91;99505.00;4973784;28;20462;-48
2023/10/14 06:21:27;;;;;;;0.40;0.20;;;;;;;17.45;99.55;99510.19;4973292;28;20470;-47
2023/10/14 06:23:54;;;;;;;0.40;0.20;;;;;;;17.53;97.32;99523.06;4973422;28;20485;-48
2023/10/14 06:26:21;;;;;;;0.40;0.20;;;;;;;17.64;97.18;99528.56;4973599;28;20844;-48
2023/10/14 06:28:49;;;;;;;0.40;0.20;;;;;;;17.62;96.45;99537.72;4973525;28;20533;-48
2023/10/14 06:31:18;;;;;;;0.40;0.20;;;;;;;17.78;97.01;99538.38;4973385;28;20982;-48
2023/10/14 06:33:45;;;;;;;0.40;0.20;;;;;;;17.71;96.58;99547.88;4973619;28;20509;-48
2023/10/14 06:36:14;;;;;;;0.40;0.20;;;;;;;17.64;96.86;99547.38;4973496;28;20498;-48
2023/10/14 06:38:44;;;;;;;0.40;0.20;;;;;;;17.52;97.71;99548.22;4973471;28;20454;-48
2023/10/14 06:41:11;;;;;;;0.40;0.20;;;;;;;17.65;97.27;99559.00;4973828;28;20473;-48
2023/10/14 06:43:38;;;;;;;0.40;0.20;;;;;;;17.57;97.24;99567.59;4973588;28;20461;-49
2023/10/14 06:46:05;;;;;;;0.40;0.20;;;;;;;17.60;96.01;99569.22;4973372;28;20541;-49
2023/10/14 06:48:33;;;;;;;0.40;0.20;;;;;;;17.64;95.65;99576.09;4973406;28;20463;-49
2023/10/14 06:51:00;;;;;;;1.17;1.07;;;;;;;17.66;95.74;99592.97;4973562;28;20494;-49
2023/10/14 06:53:28;;;;;;;0.40;0.20;;;;;;;17.56;93.99;99594.59;4973331;28;20537;-50
2023/10/14 06:55:56;;;;;;;0.40;0.20;;;;;;;17.50;94.52;99608.44;4973219;28;20573;-49
2023/10/14 06:58:23;;;;;;;0.40;0.20;;;;;;;17.54;95.01;99615.31;4973246;28;20451;-49
2023/10/14 07:00:50;;;;;;;0.40;0.20;;;;;;;17.53;92.44;99617.13;4972907;28;20898;-49
2023/10/14 07:03:17;;;;;;;0.40;0.20;;;;;;;17.54;91.52;99613.47;4973440;28;20446;-49
2023/10/14 07:05:50;;;;;;;0.40;0.20;;;;;;;17.46;91.34;99631.97;4973147;28;20801;-50
2023/10/14 07:08:21;;;;;;;0.40;0.20;;;;;;;17.44;89.71;99637.44;4973035;28;20553;-49
2023/10/14 07:10:50;;;;;;;0.40;0.20;;;;;;;17.37;89.37;99641.50;4973316;28;20466;-49
2023/10/14 07:13:17;;;;;;;0.40;0.20;;;;;;;17.22;89.88;99653.28;4973235;28;20905;-49
2023/10/14 07:15:44;;;;;;;0.40;0.20;;;;;;;17.38;92.41;99658.47;4973032;28;20830;-49
2023/10/14 07:18:13;;;;;;;0.40;0.20;;;;;;;16.98;94.60;99671.84;4973106;28;20454;-48
2023/10/14 07:20:42;;;;;;;0.40;0.20;;;;;;;16.93;93.75;99679.34;4972858;28;20513;-49
2023/10/14 07:23:08;;;;;;;0.40;0.20;;;;;;;16.62;93.72;99684.91;4973103;28;20454;-49
2023/10/14 07:25:39;;;;;;;0.40;0.20;;;;;;;16.76;93.54;99704.59;4973179;28;20505;-49
2023/10/14 07:28:07;;;;;;;0.40;0.20;;;;;;;16.68;92.83;99711.38;4972944;28;20992;-49
2023/10/14 07:30:38;;;;;;;0.40;0.20;;;;;;;16.04;93.31;99724.25;4972862;28;20454;-49
2023/10/14 07:33:06;;;;;;;0.40;0.20;;;;;;;16.02;94.05;99727.94;4975405;28;20521;-51
2023/10/14 07:35:33;;;;;;;0.40;0.20;;;;;;;15.89;93.18;99728.69;4976494;28;20504;-49
2023/10/14 07:37:59;;;;;;;0.40;0.20;;;;;;;15.78;93.62;99736.53;4976407;28;20469;-49
2023/10/14 07:40:27;;;;;;;0.40;0.20;;;;;;;15.83;92.96;99737.09;4976292;28;20469;-49
2023/10/14 07:42:56;;;;;;;0.40;0.20;;;;;;;15.68;92.26;99740.69;4976391;28;20950;-49
2023/10/14 07:45:33;;;;;;;0.40;0.20;;;;;;;15.87;92.41;99745.81;4976369;28;20455;-48
2023/10/14 07:48:20;;;;;;;0.40;0.20;;;;;;;15.59;92.59;99747.44;4976161;28;20923;-49
2023/10/14 07:50:48;;;;;;;0.40;0.20;;;;;;;15.79;92.24;99758.81;4976001;28;20824;-49
2023/10/14 07:53:19;;;;;;;0.40;0.20;;;;;;;15.83;91.71;99760.34;4976293;28;20478;-49
2023/10/14 07:55:47;;;;;;;0.40;0.20;;;;;;;15.74;90.78;99761.75;4976111;28;20577;-49
2023/10/14 07:58:16;;;;;;;0.40;0.20;;;;;;;15.81;89.83;99762.28;4976084;28;20462;-49
2023/10/14 08:00:50;;;;;;;0.40;0.20;;;;;;;15.83;89.72;99763.03;4975792;28;20571;-49
2023/10/14 08:03:21;;;;;;;0.40;0.20;;;;;;;15.66;90.14;99780.09;4976013;28;20457;-49
2023/10/14 08:05:54;;;;;;;0.40;0.20;;;;;;;15.74;89.80;99774.28;4976125;28;20442;-50
2023/10/14 08:08:22;;;;;;;0.40;0.20;;;;;;;15.85;89.30;99777.22;4976197;28;20539;-49
2023/10/14 08:10:50;;;;;;;0.40;0.20;;;;;;;15.72;88.91;99778.88;4975713;28;20897;-49
2023/10/14 08:13:21;;;;;;;0.40;0.20;;;;;;;15.80;89.36;99779.31;4975938;28;20455;-49
2023/10/14 08:15:51;;;;;;;0.40;0.20;;;;;;;15.64;89.14;99782.88;4976349;28;20494;-49
2023/10/14 08:18:20;;;;;;;0.40;0.20;;;;;;;15.50;88.64;99792.63;4975914;28;20577;-49
2023/10/14 08:20:46;;;;;;;0.40;0.20;;;;;;;15.35;89.09;99797.00;4976099;28;20450;-49
2023/10/14 08:23:13;;;;;;;0.40;0.20;;;;;;;15.37;88.89;99795.13;4975648;28;20538;-49
2023/10/14 08:25:43;;;;;;;0.40;0.20;;;;;;;15.43;88.98;99800.13;4975903;28;20451;-49
2023/10/14 08:28:10;;;;;;;0.40;0.20;;;;;;;15.36;88.66;99804.13;4962969;28;20847;-49
2023/10/14 08:30:50;;;;;;;0.40;0.20;;;;;;;15.72;88.28;99803.00;4975517;28;20451;-50
2023/10/14 08:33:19;;;;;;;0.40;0.20;;;;;;;15.70;88.25;99819.16;4975868;28;20454;-50
2023/10/14 08:35:48;;;;;;;0.40;0.20;;;;;;;15.91;87.56;99825.13;4975172;28;21062;-49
2023/10/14 08:38:17;;;;;;;0.40;0.20;;;;;;;15.92;87.49;99818.81;4975841;28;20513;-48
2023/10/14 08:40:49;;;;;;;0.40;0.20;;;;;;;16.03;86.41;99819.00;4975389;28;20546;-49
2023/10/14 08:43:20;;;;;;;0.40;0.20;;;;;;;15.91;86.47;99819.75;4974612;28;20450;-49
2023/10/14 08:45:51;;;;;;;0.40;0.20;;;;;;;15.76;87.25;99815.25;4974934;28;20446;-49
2023/10/14 08:48:25;;;;;;;0.40;0.20;;;;;;;15.56;88.12;99817.25;4975106;28;20461;-49
2023/10/14 08:50:56;;;;;;;0.40;0.20;;;;;;;15.62;88.21;99813.38;4975261;28;20598;-49
2023/10/14 08:53:24;;;;;;;0.40;0.20;;;;;;;15.66;88.50;99812.25;4975070;28;20461;-49
2023/10/14 08:55:55;;;;;;;0.40;0.20;;;;;;;15.69;88.15;99817.44;4975213;28;20589;-49
2023/10/14 08:58:22;;;;;;;0.40;0.20;;;;;;;15.77;87.62;99820.56;4975003;28;20470;-49
2023/10/14 09:00:54;;;;;;;0.40;0.20;;;;;;;15.76;88.37;99817.94;4974523;28;20500;-49
2023/10/14 09:03:21;;;;;;;0.40;0.20;;;;;;;15.86;88.08;99824.50;4974794;28;20449;-48
2023/10/14 09:05:48;;;;;;;0.40;0.20;;;;;;;15.76;87.91;99826.88;4974974;28;20442;-48
2023/10/14 09:08:16;;;;;;;0.40;0.20;;;;;;;15.86;87.77;99819.13;4974858;28;20450;-48
2023/10/14 09:10:44;;;;;;;0.40;0.20;;;;;;;16.22;86.98;99827.72;4974623;28;20832;-48
2023/10/14 09:13:12;;;;;;;0.40;0.20;;;;;;;16.25;86.65;99827.53;4974610;28;20912;-48
2023/10/14 09:15:43;;;;;;;0.40;0.20;;;;;;;15.98;86.31;99839.88;4974977;28;20862;-48
2023/10/14 09:18:16;;;;;;;0.40;0.20;;;;;;;16.00;86.51;99848.69;4974633;28;20450;-48
2023/10/14 09:20:44;;;;;;;0.40;0.20;;;;;;;15.89;86.50;99841.25;4974953;28;20454;-48
2023/10/14 09:23:24;;;;;;;0.40;0.20;;;;;;;16.06;86.49;99851.03;4974598;28;20454;-49
2023/10/14 09:25:52;;;;;;;0.40;0.20;;;;;;;16.04;86.06;99854.75;4974423;28;20474;-49
2023/10/14 09:28:22;;;;;;;0.40;0.20;;;;;;;16.10;82.96;99857.94;4974743;28;20450;-49
2023/10/14 09:30:54;;;;;;;0.40;0.20;;;;;;;15.94;84.23;99866.00;4974269;28;20900;-49
2023/10/14 09:33:27;;;;;;;0.40;0.20;;;;;;;15.95;84.84;99878.47;4974525;28;20819;-48
2023/10/14 09:35:59;;;;;;;0.40;0.20;;;;;;;15.96;85.08;99876.63;4974359;28;20865;-48
2023/10/14 09:38:27;;;;;;;0.40;0.20;;;;;;;16.10;83.71;99870.47;4974796;28;20458;-49
2023/10/14 09:40:57;;;;;;;0.40;0.20;;;;;;;16.42;83.93;99873.94;4975149;28;20828;-49
2023/10/14 09:43:24;;;;;;;0.40;0.20;;;;;;;16.23;81.76;99877.72;4974284;28;20553;-48
2023/10/14 09:45:55;;;;;;;0.40;0.20;;;;;;;16.31;73.57;99888.03;4974105;28;20521;-49
2023/10/14 09:48:29;;;;;;;0.40;0.20;;;;;;;16.23;68.49;99896.50;4974219;28;20954;-48
2023/10/14 09:51:02;;;;;;;0.40;0.20;;;;;;;16.53;68.79;99896.50;4965794;28;20478;-49
2023/10/14 09:53:32;;;;;;;0.40;0.20;;;;;;;16.83;66.83;99882.22;4974361;28;20457;-50
2023/10/14 09:56:07;;;;;;;0.40;0.20;;;;;;;16.72;59.24;99906.16;4973752;28;20882;-51
2023/10/14 09:58:35;;;;;;;0.40;0.20;;;;;;;16.72;58.85;99901.69;4973912;28;20442;-51
2023/10/14 10:01:04;;;;;;;0.40;0.20;;;;;;;16.79;62.19;99908.41;4973416;28;20481;-51
2023/10/14 10:03:39;;;;;;;0.40;0.20;;;;;;;16.95;55.43;99908.34;4956786;28;20466;-52
2023/10/14 10:06:20;;;;;;;0.40;0.20;;;;;;;16.99;55.46;99900.94;4974133;28;20446;-51
2023/10/14 10:09:17;;;;;;;0.40;0.20;;;;;;;17.23;58.84;99909.31;4973834;28;20457;-52
2023/10/14 10:11:46;;;;;;;0.40;0.20;;;;;;;16.85;60.48;99912.53;4973497;28;20474;-51
2023/10/14 10:14:17;;;;;;;0.40;0.20;;;;;;;17.01;60.22;99913.34;4974126;28;20451;-50
2023/10/14 10:16:47;;;;;;;0.40;0.20;;;;;;;16.83;58.39;99926.03;4973594;28;20527;-50
2023/10/14 10:19:14;;;;;;;0.40;0.20;;;;;;;16.56;57.84;99931.19;4973585;28;20454;-50
2023/10/14 10:22:14;;;;;;;0.40;0.20;;;;;;;16.86;56.68;99919.66;4973485;28;20478;-50
2023/10/14 10:24:44;;;;;;;0.40;0.20;;;;;;;16.58;54.81;99932.00;4973513;28;20450;-50
2023/10/14 10:27:10;;;;;;;0.40;0.20;;;;;;;16.52;55.49;99932.34;4973487;28;20533;-50
2023/10/14 10:29:44;;;;;;;0.40;0.20;;;;;;;16.63;56.89;99933.53;4973367;28;20454;-51
2023/10/14 10:32:17;;;;;;;0.40;0.20;;;;;;;16.91;55.68;99933.66;4973526;28;20525;-50
2023/10/14 10:35:05;;;;;;;0.40;0.20;;;;;;;16.86;53.70;99935.75;4973592;28;20474;-50
2023/10/14 10:37:46;;;;;;;0.40;0.20;;;;;;;16.82;53.79;99928.81;4973336;28;20521;-50
2023/10/14 10:40:15;;;;;;;0.40;0.20;;;;;;;16.72;56.38;99928.53;4973444;28;20916;-51
2023/10/14 10:42:46;;;;;;;0.40;0.20;;;;;;;16.82;57.42;99931.50;4973381;28;20474;-50
2023/10/14 10:45:21;;;;;;;0.40;0.20;;;;;;;16.80;58.00;99936.13;4973642;28;20537;-49
2023/10/14 10:47:54;;;;;;;0.40;0.20;;;;;;;17.10;58.97;99926.19;4962308;28;20493;-49
2023/10/14 10:50:22;;;;;;;0.40;0.20;;;;;;;16.87;58.24;99930.28;4973311;28;20462;-50
2023/10/14 10:53:17;;;;;;;0.40;0.20;;;;;;;16.89;58.79;99940.94;4973516;28;20565;-51
2023/10/14 10:55:49;;;;;;;0.40;0.20;;;;;;;16.88;57.94;99945.44;4973577;28;20450;-49
2023/10/14 10:58:16;;;;;;;0.40;0.20;;;;;;;17.05;58.17;99938.19;4973380;28;20549;-48
2023/10/14 11:00:47;;;;;;;0.40;0.20;;;;;;;17.39;55.71;99931.59;4973062;28;20853;-48
2023/10/14 11:03:15;;;;;;;0.40;0.20;;;;;;;17.32;55.71;99936.50;4973253;28;20537;-51
2023/10/14 11:05:43;;;;;;;0.40;0.20;;;;;;;17.55;53.68;99937.75;4974226;28;20481;-49
2023/10/14 11:08:11;;;;;;;0.40;0.20;;;;;;;16.95;52.84;99950.44;4976701;28;20552;-48
2023/10/14 11:10:39;;;;;;;0.40;0.20;;;;;;;16.93;54.97;99947.84;4977803;28;20456;-48
2023/10/14 11:13:12;;;;;;;0.40;0.20;;;;;;;16.79;54.85;99940.63;4977615;28;20478;-47
2023/10/14 11:15:40;;;;;;;0.40;0.20;;;;;;;16.90;55.04;99939.13;4977774;28;20482;-48
2023/10/14 11:18:09;;;;;;;0.40;0.20;;;;;;;17.04;55.19;99933.78;4977930;28;20461;-50
2023/10/14 11:20:46;;;;;;;0.40;0.20;;;;;;;17.13;55.69;99939.47;4977336;28;20501;-50
2023/10/14 11:23:14;;;;;;;0.40;0.20;;;;;;;16.75;55.04;99933.72;4976859;28;20446;-48
2023/10/14 11:25:53;;;;;;;0.40;0.20;;;;;;;17.02;55.11;99935.69;4977207;28;20454;-47
2023/10/14 11:28:26;;;;;;;0.40;0.20;;;;;;;17.29;54.90;99933.13;4976950;28;20444;-49
2023/10/14 11:30:55;;;;;;;0.40;0.20;;;;;;;17.22;54.08;99931.78;4976454;28;20984;-48
2023/10/14 11:33:23;;;;;;;0.40;0.20;;;;;;;17.30;54.61;99926.81;4977264;28;20533;-50
2023/10/14 11:35:50;;;;;;;0.40;0.20;;;;;;;17.59;54.69;99931.22;4976317;28;20913;-47
2023/10/14 11:38:16;;;;;;;0.40;0.20;;;;;;;17.65;52.88;99933.50;4976560;28;20828;-48
2023/10/14 11:40:45;;;;;;;0.40;0.20;;;;;;;17.53;52.06;99938.78;4976459;28;20456;-47
2023/10/14 11:43:12;;;;;;;0.40;0.20;;;;;;;17.24;51.91;99935.22;4976651;28;20472;-49
2023/10/14 11:45:45;;;;;;;0.40;0.20;;;;;;;17.20;52.22;99933.69;4976083;28;20437;-47
2023/10/14 11:48:28;;;;;;;0.40;0.20;;;;;;;17.33;51.91;99934.66;4976458;28;20818;-48
2023/10/14 11:50:58;;;;;;;0.40;0.20;;;;;;;17.29;50.60;99927.75;4976230;28;20498;-47
2023/10/14 11:53:27;;;;;;;0.40;0.20;;;;;;;17.70;51.71;99927.88;4976362;28;20428;-48
2023/10/14 11:55:59;;;;;;;0.40;0.20;;;;;;;17.34;50.57;99945.31;4976284;28;20465;-47
2023/10/14 11:58:27;;;;;;;0.40;0.20;;;;;;;17.46;51.86;99935.63;4975834;28;20492;-48
2023/10/14 12:00:55;;;;;;;0.40;0.20;;;;;;;17.62;50.96;99930.16;4958502;28;20477;-48
2023/10/14 12:03:25;;;;;;;0.40;0.20;;;;;;;17.78;50.92;99941.69;4975518;28;20481;-48
2023/10/14 12:05:59;;;;;;;0.40;0.20;;;;;;;17.33;51.63;99945.41;4976098;28;20454;-48
2023/10/14 12:08:28;;;;;;;0.40;0.20;;;;;;;17.32;50.85;99951.75;4975789;28;20795;-48
2023/10/14 12:10:57;;;;;;;0.40;0.20;;;;;;;17.15;51.20;99952.78;4975556;28;20485;-48
2023/10/14 12:13:24;;;;;;;0.40;0.20;;;;;;;17.14;51.32;99951.94;4975612;28;20450;-48
2023/10/14 12:16:11;;;;;;;0.40;0.20;;;;;;;16.86;51.14;99950.03;4976006;28;20450;-48
2023/10/14 12:18:37;;;;;;;0.40;0.20;;;;;;;17.00;52.07;99942.97;4975548;28;20450;-50
2023/10/14 12:21:04;;;;;;;0.40;0.20;;;;;;;17.08;52.63;99948.72;4975838;28;20509;-50
2023/10/14 12:23:34;;;;;;;0.40;0.20;;;;;;;17.15;51.70;99937.53;4976049;28;20506;-48